Time;durP1;ratioP1;P1;durP2;ratioP2;P2;SDS_P1;SDS_P2;PMS_P1;PMS_P2;Temp;Humidity;BMP_temperature;BMP_pressure;BME280_temperature;BME280_humidity;BME280_pressure;Samples;Min_cycle;Max_cycle;Signal;HPM_P1;HPM_P2
2022/04/16 00:01:03;;;;;;;10.65;8.60;;;;;;;;;;5053023;28;20862;-87
2022/04/16 00:03:31;;;;;;;11.00;9.13;;;;;;;;;;5052912;28;20198;-88
2022/04/16 00:05:59;;;;;;;12.18;9.13;;;;;;;;;;5052897;28;20604;-89
2022/04/16 00:08:29;;;;;;;9.05;8.15;;;;;;;;;;5052579;28;20201;-89
2022/04/16 00:10:57;;;;;;;9.70;8.70;;;;;;;;;;5052654;28;20182;-89
2022/04/16 00:13:25;;;;;;;11.57;9.27;;;;;;;;;;5052774;28;20562;-88
2022/04/16 00:15:53;;;;;;;13.00;11.30;;;;;;;;;;5052634;28;20229;-88
2022/04/16 00:18:21;;;;;;;9.95;8.95;;;;;;;;;;5052791;28;20202;-89
2022/04/16 00:20:50;;;;;;;9.77;8.82;;;;;;;;;;5052824;28;20206;-89
2022/04/16 00:23:19;;;;;;;10.50;8.07;;;;;;;;;;5052949;28;20194;-89
2022/04/16 00:25:48;;;;;;;9.20;8.25;;;;;;;;;;5052638;28;20233;-89
2022/04/16 00:28:15;;;;;;;10.32;8.57;;;;;;;;;;5052316;28;20220;-89
2022/04/16 00:30:42;;;;;;;10.90;9.52;;;;;;;;;;5092606;22;20310;-81
2022/04/16 00:33:12;;;;;;;9.40;8.32;;;;;;;;;;5099459;28;20575;-83
2022/04/16 00:35:42;;;;;;;10.07;9.07;;;;;;;;;;5099250;28;20244;-83
2022/04/16 00:38:09;;;;;;;9.20;8.05;;;;;;;;;;5099774;28;20253;-83
2022/04/16 00:40:36;;;;;;;11.38;8.32;;;;;;;;;;5099139;28;20754;-82
2022/04/16 00:43:06;;;;;;;10.57;9.10;;;;;;;;;;5099365;28;20204;-83
2022/04/16 00:45:33;;;;;;;10.85;9.75;;;;;;;;;;5101938;28;20200;-82
2022/04/16 00:48:01;;;;;;;10.65;9.55;;;;;;;;;;5104119;28;20196;-82
2022/04/16 00:50:28;;;;;;;10.98;9.32;;;;;;;;;;5103111;28;20270;-82
2022/04/16 00:52:56;;;;;;;9.95;8.00;;;;;;;;;;5082408;28;20227;-82
2022/04/16 00:55:24;;;;;;;8.02;7.22;;;;;;;;;;5083122;28;20212;-83
2022/04/16 00:57:51;;;;;;;9.23;8.27;;;;;;;;;;5083188;28;20216;-83
2022/04/16 01:00:20;;;;;;;10.05;9.02;;;;;;;;;;5083233;28;20792;-83
2022/04/16 01:02:49;;;;;;;10.32;9.18;;;;;;;;;;5082811;28;20567;-82
2022/04/16 01:05:19;;;;;;;9.40;8.48;;;;;;;;;;5082300;28;20657;-82
2022/04/16 01:07:54;;;;;;;10.55;8.40;;;;;;;;;;5082180;28;20232;-82
2022/04/16 01:10:25;;;;;;;9.30;8.32;;;;;;;;;;5081804;28;20216;-82
2022/04/16 01:12:53;;;;;;;6.95;5.88;;;;;;;;;;5082836;28;20205;-83
2022/04/16 01:15:22;;;;;;;5.68;5.18;;;;;;;;;;5082397;28;20201;-83
2022/04/16 01:17:49;;;;;;;4.72;4.32;;;;;;;;;;5083226;28;20232;-83
2022/04/16 01:20:17;;;;;;;6.45;5.20;;;;;;;;;;5082566;28;20700;-82
2022/04/16 01:22:48;;;;;;;7.72;7.03;;;;;;;;;;5082370;28;20263;-83
2022/04/16 01:25:15;;;;;;;6.07;5.50;;;;;;;;;;5082008;28;20201;-83
2022/04/16 01:27:45;;;;;;;7.47;6.78;;;;;;;;;;5082769;28;20204;-82
2022/04/16 01:30:15;;;;;;;6.00;5.40;;;;;;;;;;5081443;28;20612;-82
2022/04/16 01:32:42;;;;;;;5.47;4.97;;;;;;;;;;5082206;28;20255;-82
2022/04/16 01:35:10;;;;;;;6.00;5.45;;;;;;;;;;5081483;28;20227;-83
2022/04/16 01:37:38;;;;;;;6.00;5.50;;;;;;;;;;5081240;28;20221;-83
2022/04/16 01:40:09;;;;;;;5.78;5.22;;;;;;;;;;5081702;28;20243;-82
2022/04/16 01:42:37;;;;;;;5.75;5.25;;;;;;;;;;5081443;28;20677;-83
2022/04/16 01:45:05;;;;;;;5.22;4.80;;;;;;;;;;5081799;28;20204;-83
2022/04/16 01:47:33;;;;;;;6.32;5.65;;;;;;;;;;5081398;28;20212;-82
2022/04/16 01:50:01;;;;;;;6.45;5.88;;;;;;;;;;5081373;28;20616;-82
2022/04/16 01:52:28;;;;;;;8.07;7.28;;;;;;;;;;5080878;28;20258;-82
2022/04/16 01:54:55;;;;;;;6.13;5.53;;;;;;;;;;5080868;28;20269;-82
2022/04/16 01:57:24;;;;;;;6.85;6.25;;;;;;;;;;5081530;28;20221;-81
2022/04/16 01:59:52;;;;;;;6.32;5.72;;;;;;;;;;5081747;28;20753;-83
2022/04/16 02:02:20;;;;;;;7.28;6.57;;;;;;;;;;5080214;28;20205;-82
2022/04/16 02:04:48;;;;;;;6.45;5.75;;;;;;;;;;5081696;28;20255;-82
2022/04/16 02:07:15;;;;;;;6.15;5.55;;;;;;;;;;5080810;28;20670;-82
2022/04/16 02:09:43;;;;;;;6.32;5.63;;;;;;;;;;5080741;28;20233;-82
2022/04/16 02:12:13;;;;;;;6.90;5.60;;;;;;;;;;5080495;28;20197;-82
2022/04/16 02:14:41;;;;;;;6.95;5.65;;;;;;;;;;5080934;28;20200;-82
2022/04/16 02:17:09;;;;;;;7.55;6.85;;;;;;;;;;5079617;28;20311;-82
2022/04/16 02:19:38;;;;;;;6.78;6.13;;;;;;;;;;5080586;28;20217;-82
2022/04/16 02:22:06;;;;;;;5.55;5.05;;;;;;;;;;5081364;28;20621;-82
2022/04/16 02:24:33;;;;;;;6.65;6.03;;;;;;;;;;5081772;28;20210;-82
2022/04/16 02:27:00;;;;;;;5.22;4.68;;;;;;;;;;5081561;28;20676;-82
2022/04/16 02:29:28;;;;;;;8.75;7.85;;;;;;;;;;5079993;28;20221;-82
2022/04/16 02:31:56;;;;;;;7.53;6.45;;;;;;;;;;5079967;28;20201;-81
2022/04/16 02:34:24;;;;;;;7.53;6.82;;;;;;;;;;5079734;28;20721;-82
2022/04/16 02:36:51;;;;;;;7.57;6.50;;;;;;;;;;5079559;28;20228;-82
2022/04/16 02:39:18;;;;;;;6.68;6.03;;;;;;;;;;5080881;28;20221;-82
2022/04/16 02:41:45;;;;;;;7.25;6.53;;;;;;;;;;5080209;28;20201;-82
2022/04/16 02:47:08;;;;;;;7.07;6.38;;;;;;;;;;5080434;28;20560;-83
2022/04/16 02:49:37;;;;;;;6.97;6.30;;;;;;;;;;5081432;28;20217;-83
2022/04/16 02:52:06;;;;;;;6.18;5.57;;;;;;;;;;5080391;28;20583;-82
2022/04/16 02:54:33;;;;;;;5.45;4.85;;;;;;;;;;5080310;28;20208;-82
2022/04/16 02:57:00;;;;;;;5.80;5.28;;;;;;;;;;5080094;28;20224;-82
2022/04/16 02:59:28;;;;;;;5.93;5.43;;;;;;;;;;5080275;28;20325;-81
2022/04/16 03:01:56;;;;;;;4.97;4.30;;;;;;;;;;5079606;28;20204;-83
2022/04/16 03:04:26;;;;;;;4.93;4.53;;;;;;;;;;5080324;28;20643;-82
2022/04/16 03:06:53;;;;;;;5.40;4.30;;;;;;;;;;5087993;28;20200;-83
2022/04/16 03:09:20;;;;;;;6.85;6.10;;;;;;;;;;5089791;28;20221;-81
2022/04/16 03:11:48;;;;;;;6.60;6.00;;;;;;;;;;5090586;28;20205;-81
2022/04/16 03:19:46;;;;;;;7.10;6.05;;;;;;;;;;5084272;28;20230;-81
2022/04/16 03:22:14;;;;;;;5.90;5.15;;;;;;;;;;5083934;28;20201;-81
2022/04/16 03:24:41;;;;;;;6.63;6.03;;;;;;;;;;5084528;28;20205;-81
2022/04/16 03:27:09;;;;;;;9.00;6.57;;;;;;;;;;5083929;28;20227;-80
2022/04/16 03:29:36;;;;;;;8.48;5.43;;;;;;;;;;5083542;28;20225;-82
2022/04/16 03:32:06;;;;;;;8.00;6.18;;;;;;;;;;5084695;28;20218;-81
2022/04/16 03:34:34;;;;;;;7.78;6.78;;;;;;;;;;5083766;28;20212;-82
2022/04/16 03:37:01;;;;;;;7.78;6.53;;;;;;;;;;5083411;28;20200;-82
2022/04/16 03:39:29;;;;;;;7.55;6.80;;;;;;;;;;5082448;28;20284;-81
2022/04/16 03:41:56;;;;;;;6.20;5.63;;;;;;;;;;5081670;28;20232;-81
2022/04/16 03:44:23;;;;;;;5.18;4.68;;;;;;;;;;5082528;28;20673;-81
2022/04/16 03:46:50;;;;;;;5.80;5.22;;;;;;;;;;5082584;28;20204;-80
2022/04/16 03:49:19;;;;;;;6.32;5.20;;;;;;;;;;5081750;28;20225;-81
2022/04/16 03:51:46;;;;;;;7.57;6.55;;;;;;;;;;5108090;23;20688;-85
2022/04/16 04:00:03;;;;;;;7.80;6.50;;;;;;;;;;5074380;28;20200;-83
2022/04/16 04:02:33;;;;;;;7.32;6.63;;;;;;;;;;5074863;28;20256;-82
2022/04/16 04:05:02;;;;;;;8.55;6.90;;;;;;;;;;5074325;28;20291;-81
2022/04/16 04:07:30;;;;;;;7.35;6.40;;;;;;;;;;5074201;28;20588;-83
2022/04/16 04:09:57;;;;;;;8.48;7.63;;;;;;;;;;5073581;28;20204;-83
2022/04/16 04:12:24;;;;;;;7.68;5.90;;;;;;;;;;5074434;28;20697;-82
2022/04/16 04:14:52;;;;;;;14.13;8.52;;;;;;;;;;5074088;28;20201;-82
2022/04/16 04:17:19;;;;;;;6.50;5.65;;;;;;;;;;5074244;28;20201;-82
2022/04/16 04:19:48;;;;;;;6.70;6.00;;;;;;;;;;5077229;28;20205;-82
2022/04/16 04:22:17;;;;;;;5.78;4.43;;;;;;;;;;5093127;28;20724;-83
2022/04/16 04:24:46;;;;;;;9.60;7.28;;;;;;;;;;5099855;28;20196;-82
2022/04/16 04:27:13;;;;;;;7.38;5.60;;;;;;;;;;5099229;28;20188;-82
2022/04/16 04:29:41;;;;;;;5.30;4.80;;;;;;;;;;5099385;28;20197;-82
2022/04/16 04:32:09;;;;;;;7.10;6.00;;;;;;;;;;5098565;28;20220;-81
2022/04/16 04:34:36;;;;;;;5.65;5.07;;;;;;;;;;5099389;28;20568;-82
2022/04/16 04:37:05;;;;;;;6.50;5.25;;;;;;;;;;5098888;28;20188;-82
2022/04/16 04:39:33;;;;;;;6.03;5.45;;;;;;;;;;5098303;28;20227;-80
2022/04/16 04:42:01;;;;;;;6.40;5.32;;;;;;;;;;5098777;28;20716;-82
2022/04/16 04:44:28;;;;;;;6.20;5.35;;;;;;;;;;5099125;28;20212;-82
2022/04/16 04:46:56;;;;;;;8.82;6.07;;;;;;;;;;5099761;28;20200;-82
2022/04/16 04:49:23;;;;;;;6.03;4.88;;;;;;;;;;5099110;28;20204;-82
2022/04/16 04:51:50;;;;;;;6.93;5.97;;;;;;;;;;5087480;28;20232;-82
2022/04/16 04:54:18;;;;;;;7.78;6.28;;;;;;;;;;5078856;28;20212;-81
2022/04/16 04:56:47;;;;;;;7.78;6.97;;;;;;;;;;5079376;28;20200;-82
2022/04/16 04:59:14;;;;;;;8.52;7.50;;;;;;;;;;5078625;28;20229;-82
2022/04/16 05:01:41;;;;;;;7.13;5.95;;;;;;;;;;5078332;28;20224;-81
2022/04/16 05:04:08;;;;;;;9.32;7.85;;;;;;;;;;5078567;28;20212;-82
2022/04/16 05:06:36;;;;;;;11.15;6.20;;;;;;;;;;5077894;28;20209;-82
2022/04/16 05:09:03;;;;;;;7.95;5.72;;;;;;;;;;5077883;28;20197;-81
2022/04/16 05:11:31;;;;;;;8.98;6.38;;;;;;;;;;5078406;28;20613;-82
2022/04/16 05:13:59;;;;;;;6.57;5.90;;;;;;;;;;5078646;28;20251;-82
2022/04/16 05:16:27;;;;;;;8.65;7.35;;;;;;;;;;5078060;28;20208;-82
2022/04/16 05:18:54;;;;;;;12.52;8.57;;;;;;;;;;5077987;28;20225;-82
2022/04/16 05:21:23;;;;;;;10.05;7.60;;;;;;;;;;5078692;28;20221;-82
2022/04/16 05:23:56;;;;;;;9.27;6.95;;;;;;;;;;5078263;28;20193;-82
2022/04/16 05:26:23;;;;;;;5.82;5.22;;;;;;;;;;5077665;28;20200;-80
2022/04/16 05:28:50;;;;;;;4.82;4.13;;;;;;;;;;5077795;28;20193;-81
2022/04/16 05:31:20;;;;;;;6.65;5.43;;;;;;;;;;5077855;28;20228;-82
2022/04/16 05:36:32;;;;;;;5.90;4.53;;;;;;;;;;5078157;28;20208;-83
2022/04/16 05:38:59;;;;;;;4.20;3.80;;;;;;;;;;5078542;28;20217;-82
2022/04/16 05:41:27;;;;;;;4.40;4.00;;;;;;;;;;5078836;28;20225;-82
2022/04/16 05:43:54;;;;;;;4.85;4.18;;;;;;;;;;5078331;28;20197;-82
2022/04/16 05:46:23;;;;;;;6.63;4.72;;;;;;;;;;5077652;28;20208;-81
2022/04/16 05:48:50;;;;;;;5.95;4.78;;;;;;;;;;5078041;28;20201;-83
2022/04/16 05:51:17;;;;;;;3.92;3.58;;;;;;;;;;5077556;28;20649;-83
2022/04/16 05:53:45;;;;;;;4.25;3.67;;;;;;;;;;5077887;28;20201;-81
2022/04/16 05:56:13;;;;;;;5.10;4.35;;;;;;;;;;5078060;28;20204;-82
2022/04/16 05:58:41;;;;;;;6.03;5.03;;;;;;;;;;5077972;28;20223;-83
2022/04/16 06:01:08;;;;;;;5.80;5.20;;;;;;;;;;5077818;28;20201;-83
2022/04/16 06:03:39;;;;;;;7.60;5.43;;;;;;;;;;5077264;28;20865;-82
2022/04/16 06:06:07;;;;;;;6.68;4.93;;;;;;;;;;5076880;28;20205;-85
2022/04/16 06:08:35;;;;;;;6.50;5.32;;;;;;;;;;5078122;28;20563;-85
2022/04/16 06:11:03;;;;;;;7.43;5.22;;;;;;;;;;5079635;28;20283;-85
2022/04/16 06:17:12;;;;;;;5.75;5.15;;;;;;;;;;5076908;28;20219;-88
2022/04/16 06:19:41;;;;;;;5.07;4.25;;;;;;;;;;5076511;28;20715;-89
2022/04/16 06:22:08;;;;;;;7.05;4.65;;;;;;;;;;5062239;28;20234;-84
2022/04/16 06:24:35;;;;;;;6.70;4.55;;;;;;;;;;5058705;28;20201;-85
2022/04/16 06:27:03;;;;;;;5.35;4.22;;;;;;;;;;5057726;28;20208;-84
2022/04/16 06:29:30;;;;;;;4.30;3.92;;;;;;;;;;5057505;28;20201;-83
2022/04/16 06:31:58;;;;;;;4.22;3.83;;;;;;;;;;5060127;28;20229;-84
2022/04/16 06:34:27;;;;;;;4.35;3.95;;;;;;;;;;5077862;28;20571;-85
2022/04/16 06:36:55;;;;;;;5.63;4.00;;;;;;;;;;5078221;28;20616;-85
2022/04/16 06:39:23;;;;;;;4.03;3.60;;;;;;;;;;5077128;28;20220;-85
2022/04/16 06:41:50;;;;;;;6.28;3.15;;;;;;;;;;5078075;28;20217;-86
2022/04/16 06:44:17;;;;;;;3.28;2.97;;;;;;;;;;5075800;28;20224;-88
2022/04/16 06:46:47;;;;;;;3.97;3.67;;;;;;;;;;5077979;28;20197;-87
2022/04/16 06:49:14;;;;;;;2.63;2.42;;;;;;;;;;5074904;28;20197;-89
2022/04/16 06:51:42;;;;;;;2.17;2.08;;;;;;;;;;5076468;28;20235;-88
2022/04/16 06:54:10;;;;;;;2.55;1.95;;;;;;;;;;5075227;28;20197;-88
2022/04/16 06:56:38;;;;;;;1.67;1.58;;;;;;;;;;5075196;28;20284;-89
2022/04/16 06:59:05;;;;;;;2.72;2.38;;;;;;;;;;5075957;28;20598;-88
2022/04/16 07:01:33;;;;;;;2.50;2.25;;;;;;;;;;5075502;28;20278;-89
2022/04/16 07:04:00;;;;;;;2.05;1.95;;;;;;;;;;5075817;28;20189;-88
2022/04/16 07:06:28;;;;;;;3.08;1.70;;;;;;;;;;5076487;28;20201;-90
2022/04/16 07:08:55;;;;;;;3.70;1.63;;;;;;;;;;5074375;28;20197;-89
2022/04/16 07:11:24;;;;;;;1.70;1.60;;;;;;;;;;5073648;28;20220;-89
2022/04/16 07:13:52;;;;;;;1.27;1.20;;;;;;;;;;5073710;28;20192;-90
2022/04/16 07:16:19;;;;;;;1.00;1.00;;;;;;;;;;5073771;28;20641;-90
2022/04/16 07:18:49;;;;;;;1.40;1.10;;;;;;;;;;5074438;28;20687;-89
2022/04/16 07:21:16;;;;;;;1.40;1.30;;;;;;;;;;5080644;28;20315;-88
2022/04/16 07:23:44;;;;;;;0.90;0.90;;;;;;;;;;5094203;28;20245;-89
2022/04/16 07:26:11;;;;;;;1.00;1.00;;;;;;;;;;5094573;28;20555;-89
2022/04/16 07:28:40;;;;;;;1.50;1.40;;;;;;;;;;5094103;28;20219;-89
2022/04/16 07:31:07;;;;;;;1.48;1.38;;;;;;;;;;5093418;28;20176;-88
2022/04/16 07:33:34;;;;;;;1.13;1.13;;;;;;;;;;5093687;28;20572;-88
2022/04/16 07:36:02;;;;;;;1.00;1.00;;;;;;;;;;5093888;28;20672;-90
2022/04/16 07:38:30;;;;;;;1.30;1.20;;;;;;;;;;5094229;28;20211;-86
2022/04/16 07:40:57;;;;;;;1.80;1.70;;;;;;;;;;5095366;28;20221;-86
2022/04/16 07:43:24;;;;;;;1.45;1.35;;;;;;;;;;5093477;28;20200;-86
2022/04/16 07:45:53;;;;;;;1.33;1.23;;;;;;;;;;5093510;28;20192;-87
2022/04/16 07:48:21;;;;;;;1.52;1.40;;;;;;;;;;5084442;28;20203;-87
2022/04/16 07:50:48;;;;;;;2.13;1.20;;;;;;;;;;5074725;28;20201;-86
2022/04/16 07:53:15;;;;;;;1.15;1.15;;;;;;;;;;5074910;28;20239;-86
2022/04/16 07:55:43;;;;;;;1.63;1.48;;;;;;;;;;5074919;28;20201;-86
2022/04/16 07:58:10;;;;;;;1.25;1.13;;;;;;;;;;5075931;28;20197;-85
2022/04/16 08:00:37;;;;;;;1.50;1.40;;;;;;;;;;5076085;28;20217;-85
2022/04/16 08:03:06;;;;;;;1.40;1.08;;;;;;;;;;5075329;28;20216;-86
2022/04/16 08:05:34;;;;;;;1.67;1.27;;;;;;;;;;5075011;28;20672;-87
2022/04/16 08:08:02;;;;;;;1.20;1.10;;;;;;;;;;5076110;28;20653;-86
2022/04/16 08:10:29;;;;;;;0.95;0.95;;;;;;;;;;5077529;28;20304;-85
2022/04/16 08:12:56;;;;;;;0.98;0.98;;;;;;;;;;5077144;28;20213;-85
2022/04/16 08:15:24;;;;;;;1.08;1.08;;;;;;;;;;5073326;28;20205;-87
2022/04/16 08:17:51;;;;;;;1.35;1.27;;;;;;;;;;5073308;28;20197;-86
2022/04/16 08:20:33;;;;;;;0.90;0.90;;;;;;;;;;5072705;28;20225;-87
2022/04/16 08:23:05;;;;;;;1.05;0.98;;;;;;;;;;5073663;28;20228;-86
2022/04/16 08:25:44;;;;;;;0.80;0.80;;;;;;;;;;5073876;28;20212;-86
2022/04/16 08:28:12;;;;;;;1.33;1.23;;;;;;;;;;5072905;28;20196;-86
2022/04/16 08:30:39;;;;;;;1.00;1.00;;;;;;;;;;5074266;28;20205;-84
2022/04/16 08:33:08;;;;;;;0.90;0.80;;;;;;;;;;5074208;28;20595;-88
2022/04/16 08:35:42;;;;;;;1.17;0.95;;;;;;;;;;5072959;28;20673;-86
2022/04/16 08:38:11;;;;;;;1.35;1.35;;;;;;;;;;5072684;28;20208;-85
2022/04/16 08:40:38;;;;;;;0.88;0.88;;;;;;;;;;5072749;28;20680;-86
2022/04/16 08:43:08;;;;;;;1.42;0.80;;;;;;;;;;5072158;28;20227;-85
2022/04/16 08:45:37;;;;;;;0.80;0.80;;;;;;;;;;5072250;28;20212;-86
2022/04/16 08:48:06;;;;;;;1.27;1.27;;;;;;;;;;5073061;28;20221;-85
2022/04/16 08:50:36;;;;;;;0.85;0.85;;;;;;;;;;5073307;28;20279;-87
2022/04/16 08:53:03;;;;;;;1.60;1.27;;;;;;;;;;5073559;28;20212;-84
2022/04/16 08:55:31;;;;;;;0.80;0.80;;;;;;;;;;5072327;28;20578;-85
2022/04/16 08:57:58;;;;;;;0.82;0.82;;;;;;;;;;5073316;28;20213;-85
2022/04/16 09:00:26;;;;;;;1.08;0.82;;;;;;;;;;5072068;28;20213;-86
2022/04/16 09:03:05;;;;;;;0.82;0.80;;;;;;;;;;5072230;28;20736;-85
2022/04/16 09:05:32;;;;;;;0.70;0.70;;;;;;;;;;5056259;28;20724;-85
2022/04/16 09:08:03;;;;;;;1.08;1.08;;;;;;;;;;5075102;28;20562;-85
2022/04/16 09:10:32;;;;;;;0.85;0.85;;;;;;;;;;5075509;28;20672;-86
2022/04/16 09:13:03;;;;;;;2.47;0.90;;;;;;;;;;5069064;28;20228;-89
2022/04/16 09:15:35;;;;;;;0.90;0.90;;;;;;;;;;5077673;28;20589;-85
2022/04/16 09:18:05;;;;;;;0.80;0.80;;;;;;;;;;5078329;28;20250;-85
2022/04/16 09:20:35;;;;;;;0.80;0.80;;;;;;;;;;5076030;28;20256;-85
2022/04/16 09:23:15;;;;;;;0.80;0.80;;;;;;;;;;5077147;28;20221;-85
2022/04/16 09:25:43;;;;;;;2.35;1.05;;;;;;;;;;5076351;28;20219;-85
2022/04/16 09:28:11;;;;;;;0.77;0.77;;;;;;;;;;5076610;28;20197;-85
2022/04/16 09:30:38;;;;;;;0.80;0.80;;;;;;;;;;5076534;28;20204;-86
2022/04/16 09:33:08;;;;;;;0.60;0.60;;;;;;;;;;5075658;28;20213;-84
2022/04/16 09:35:37;;;;;;;0.70;0.70;;;;;;;;;;5075932;28;20209;-85
2022/04/16 09:38:07;;;;;;;0.63;0.63;;;;;;;;;;5075431;28;20554;-84
2022/04/16 09:40:36;;;;;;;0.70;0.70;;;;;;;;;;5075510;28;20258;-85
2022/04/16 09:43:07;;;;;;;1.08;0.80;;;;;;;;;;5074998;28;20610;-86
2022/04/16 09:45:38;;;;;;;0.73;0.73;;;;;;;;;;5075720;28;20197;-85
2022/04/16 09:48:11;;;;;;;0.95;0.90;;;;;;;;;;5079755;28;20239;-85
2022/04/16 09:50:40;;;;;;;1.00;0.80;;;;;;;;;;5076600;28;20217;-89
2022/04/16 09:53:10;;;;;;;2.05;1.15;;;;;;;;;;5074569;28;20227;-85
2022/04/16 09:55:37;;;;;;;0.70;0.70;;;;;;;;;;5075300;28;20193;-85
2022/04/16 09:58:09;;;;;;;0.75;0.75;;;;;;;;;;5075413;28;20193;-88
2022/04/16 10:00:38;;;;;;;0.70;0.70;;;;;;;;;;5076236;28;20193;-85
2022/04/16 10:03:08;;;;;;;0.82;0.82;;;;;;;;;;5076758;28;20243;-86
2022/04/16 10:05:36;;;;;;;1.30;0.88;;;;;;;;;;5076884;28;20195;-83
2022/04/16 10:08:05;;;;;;;1.00;0.95;;;;;;;;;;5077823;28;20197;-83
2022/04/16 10:10:41;;;;;;;0.95;0.90;;;;;;;;;;5077871;28;20586;-85
2022/04/16 10:13:10;;;;;;;0.55;0.55;;;;;;;;;;5075926;28;20224;-85
2022/04/16 10:15:48;;;;;;;1.83;0.98;;;;;;;;;;5075750;28;20210;-85
2022/04/16 10:18:16;;;;;;;0.95;0.75;;;;;;;;;;5073519;28;20204;-85
2022/04/16 10:20:54;;;;;;;0.90;0.90;;;;;;;;;;5078995;28;20197;-85
2022/04/16 10:23:30;;;;;;;1.00;0.90;;;;;;;;;;5076142;28;20263;-86
2022/04/16 10:26:09;;;;;;;0.77;0.77;;;;;;;;;;5075449;28;20602;-85
2022/04/16 10:28:44;;;;;;;1.48;1.10;;;;;;;;;;5074025;28;20207;-85
2022/04/16 10:31:23;;;;;;;0.80;0.80;;;;;;;;;;5073132;28;20204;-87
2022/04/16 10:33:59;;;;;;;0.93;0.60;;;;;;;;;;5074344;28;20244;-87
2022/04/16 10:36:27;;;;;;;0.80;0.80;;;;;;;;;;5072280;28;20247;-84
2022/04/16 10:38:55;;;;;;;0.90;0.80;;;;;;;;;;5075015;28;20201;-88
2022/04/16 10:41:25;;;;;;;1.10;1.00;;;;;;;;;;5074641;28;20251;-86
2022/04/16 10:43:55;;;;;;;0.80;0.75;;;;;;;;;;5074720;28;20211;-86
2022/04/16 10:46:22;;;;;;;0.70;0.70;;;;;;;;;;5091425;22;20229;-80
2022/04/16 10:48:51;;;;;;;0.88;0.75;;;;;;;;;;5076863;28;20222;-79
2022/04/16 10:51:22;;;;;;;0.57;0.57;;;;;;;;;;5076044;28;20745;-80
2022/04/16 10:53:50;;;;;;;0.75;0.75;;;;;;;;;;5076943;28;20237;-80
2022/04/16 10:56:20;;;;;;;1.10;1.00;;;;;;;;;;5075792;28;20259;-79
2022/04/16 10:59:00;;;;;;;0.85;0.85;;;;;;;;;;5072822;28;20209;-79
2022/04/16 11:01:28;;;;;;;1.00;1.00;;;;;;;;;;5072589;28;20236;-79
2022/04/16 11:03:56;;;;;;;0.88;0.88;;;;;;;;;;5072484;28;20208;-79
2022/04/16 11:06:35;;;;;;;0.63;0.63;;;;;;;;;;5072975;28;20266;-78
2022/04/16 11:09:03;;;;;;;0.70;0.70;;;;;;;;;;5072712;28;20208;-80
2022/04/16 11:11:30;;;;;;;0.80;0.80;;;;;;;;;;5072169;28;20224;-79
2022/04/16 11:14:00;;;;;;;0.80;0.80;;;;;;;;;;5072287;28;20201;-79
2022/04/16 11:16:28;;;;;;;1.15;0.60;;;;;;;;;;5072381;28;20223;-79
2022/04/16 11:18:55;;;;;;;0.77;0.77;;;;;;;;;;5072290;28;20833;-79
2022/04/16 11:21:29;;;;;;;0.57;0.57;;;;;;;;;;5072490;28;20274;-80
2022/04/16 11:23:56;;;;;;;1.45;0.60;;;;;;;;;;5072600;28;20213;-79
2022/04/16 11:34:50;;;;;;;0.63;0.63;;;;;;;;;;5073173;28;20224;-80
2022/04/16 11:37:17;;;;;;;0.95;0.95;;;;;;;;;;5072201;28;20209;-81
2022/04/16 11:39:46;;;;;;;0.55;0.55;;;;;;;;;;5072310;28;20673;-80
2022/04/16 11:42:13;;;;;;;0.80;0.80;;;;;;;;;;5072016;28;20237;-80
2022/04/16 11:44:45;;;;;;;0.60;0.60;;;;;;;;;;5072036;28;20251;-79
2022/04/16 11:47:14;;;;;;;0.95;0.95;;;;;;;;;;5072141;28;20208;-80
2022/04/16 11:49:44;;;;;;;0.70;0.70;;;;;;;;;;5072829;28;20201;-79
2022/04/16 11:52:12;;;;;;;0.60;0.60;;;;;;;;;;5072434;28;20221;-80
2022/04/16 11:54:40;;;;;;;0.88;0.80;;;;;;;;;;5072300;28;20209;-80
2022/04/16 11:57:08;;;;;;;0.57;0.57;;;;;;;;;;5071760;28;20235;-80
2022/04/16 11:59:36;;;;;;;1.45;1.00;;;;;;;;;;5071953;28;20205;-79
2022/04/16 12:02:09;;;;;;;0.70;0.70;;;;;;;;;;5071012;28;20259;-79
2022/04/16 12:04:39;;;;;;;0.70;0.70;;;;;;;;;;5071608;28;20216;-81
2022/04/16 12:07:17;;;;;;;0.63;0.60;;;;;;;;;;5072546;28;20212;-80
2022/04/16 12:09:48;;;;;;;0.90;0.73;;;;;;;;;;5072074;28;20716;-81
2022/04/16 12:12:17;;;;;;;0.93;0.93;;;;;;;;;;5071234;28;20225;-80
2022/04/16 12:14:49;;;;;;;1.48;1.30;;;;;;;;;;5072324;28;20266;-80
2022/04/16 12:17:29;;;;;;;0.95;0.70;;;;;;;;;;5071989;28;20205;-79
2022/04/16 12:20:04;;;;;;;0.73;0.73;;;;;;;;;;5069347;28;20599;-79
2022/04/16 12:22:31;;;;;;;0.70;0.70;;;;;;;;;;5070869;28;20315;-80
2022/04/16 12:25:09;;;;;;;0.70;0.70;;;;;;;;;;5071225;28;20200;-79
2022/04/16 12:27:36;;;;;;;0.90;0.82;;;;;;;;;;5071265;28;20212;-79
2022/04/16 12:30:04;;;;;;;0.50;0.50;;;;;;;;;;5070977;28;20205;-80
2022/04/16 12:32:33;;;;;;;0.70;0.70;;;;;;;;;;5071236;28;20205;-79
2022/04/16 12:35:00;;;;;;;0.50;0.50;;;;;;;;;;5071136;28;20217;-80
2022/04/16 12:37:27;;;;;;;0.68;0.60;;;;;;;;;;5070356;28;20665;-81
2022/04/16 12:39:54;;;;;;;0.80;0.80;;;;;;;;;;5070922;28;20205;-79
2022/04/16 12:42:22;;;;;;;0.40;0.40;;;;;;;;;;5073426;28;20232;-79
2022/04/16 12:44:49;;;;;;;0.60;0.60;;;;;;;;;;5074875;28;20665;-79
2022/04/16 12:47:16;;;;;;;0.60;0.60;;;;;;;;;;5074302;28;20220;-78
2022/04/16 12:49:45;;;;;;;0.50;0.50;;;;;;;;;;5074466;28;20645;-78
2022/04/16 12:52:12;;;;;;;0.50;0.50;;;;;;;;;;5073845;28;20221;-79
2022/04/16 12:54:39;;;;;;;0.90;0.70;;;;;;;;;;5074306;28;20197;-78
2022/04/16 12:57:07;;;;;;;0.75;0.75;;;;;;;;;;5074449;28;20205;-78
2022/04/16 12:59:34;;;;;;;0.60;0.60;;;;;;;;;;5074601;28;20200;-78
2022/04/16 13:04:40;;;;;;;0.50;0.50;;;;;;;;;;5056139;28;20240;-82
2022/04/16 13:07:09;;;;;;;0.73;0.73;;;;;;;;;;5058590;28;20202;-79
2022/04/16 13:09:36;;;;;;;0.80;0.80;;;;;;;;;;5042814;28;20206;-82
2022/04/16 13:12:04;;;;;;;0.70;0.70;;;;;;;;;;5042468;28;20751;-82
2022/04/16 13:14:31;;;;;;;0.73;0.73;;;;;;;;;;5023838;28;20481;-82
2022/04/16 13:16:59;;;;;;;2.08;0.52;;;;;;;;;;5023648;28;20215;-81
2022/04/16 13:19:26;;;;;;;0.50;0.50;;;;;;;;;;5023042;28;20207;-82
2022/04/16 13:21:55;;;;;;;0.70;0.70;;;;;;;;;;5027268;28;20736;-80
2022/04/16 13:24:23;;;;;;;0.80;0.80;;;;;;;;;;5022445;28;20234;-81
2022/04/16 13:26:51;;;;;;;0.70;0.70;;;;;;;;;;5022115;28;20199;-81
2022/04/16 13:29:18;;;;;;;0.50;0.50;;;;;;;;;;5031593;28;20218;-80
2022/04/16 13:31:46;;;;;;;0.93;0.88;;;;;;;;;;5038022;28;20203;-81
2022/04/16 13:34:13;;;;;;;0.70;0.70;;;;;;;;;;5042364;28;20227;-82
2022/04/16 13:36:41;;;;;;;0.70;0.70;;;;;;;;;;5031508;28;20678;-81
2022/04/16 13:41:37;;;;;;;2.70;1.08;;;;;;;;;;5036127;28;20207;-82
2022/04/16 13:41:56;;;;;;;0.70;0.70;;;;;;;;;;5037988;28;20230;-82
2022/04/16 13:44:24;;;;;;;0.65;0.60;;;;;;;;;;5038934;28;20337;-82
2022/04/16 13:46:51;;;;;;;0.98;0.90;;;;;;;;;;5043296;28;20305;-82
2022/04/16 13:49:19;;;;;;;0.60;0.60;;;;;;;;;;5032205;28;20218;-81
2022/04/16 13:51:46;;;;;;;0.93;0.93;;;;;;;;;;5023991;28;20223;-82
2022/04/16 13:54:13;;;;;;;0.80;0.80;;;;;;;;;;5035846;28;20230;-83
2022/04/16 13:56:41;;;;;;;0.80;0.80;;;;;;;;;;5045075;28;20210;-82
2022/04/16 13:59:10;;;;;;;0.70;0.70;;;;;;;;;;5044326;28;20214;-82
2022/04/16 14:01:38;;;;;;;0.60;0.60;;;;;;;;;;5042746;28;20268;-82
2022/04/16 14:04:06;;;;;;;0.80;0.80;;;;;;;;;;5043156;28;20233;-80
2022/04/16 14:06:33;;;;;;;1.90;1.02;;;;;;;;;;5042838;28;20226;-82
2022/04/16 14:09:00;;;;;;;1.02;0.90;;;;;;;;;;5024799;28;20214;-83
2022/04/16 14:11:28;;;;;;;0.65;0.65;;;;;;;;;;5023932;28;20199;-83
2022/04/16 14:13:56;;;;;;;1.20;0.98;;;;;;;;;;5024798;28;20298;-82
2022/04/16 14:16:24;;;;;;;1.20;1.10;;;;;;;;;;5029732;28;20202;-83
2022/04/16 14:18:51;;;;;;;0.80;0.80;;;;;;;;;;5043987;28;20207;-80
2022/04/16 14:21:19;;;;;;;1.45;1.35;;;;;;;;;;5028562;28;20298;-83
2022/04/16 14:23:46;;;;;;;0.80;0.80;;;;;;;;;;5038916;28;20234;-84
2022/04/16 14:26:13;;;;;;;0.68;0.68;;;;;;;;;;5041570;28;20263;-83
2022/04/16 14:28:41;;;;;;;0.70;0.70;;;;;;;;;;5023600;28;20305;-84
2022/04/16 14:31:09;;;;;;;0.60;0.60;;;;;;;;;;5037937;28;20206;-85
2022/04/16 14:33:38;;;;;;;1.63;1.10;;;;;;;;;;5039868;28;20250;-83
2022/04/16 14:36:06;;;;;;;1.48;1.35;;;;;;;;;;5040830;28;20682;-83
2022/04/16 14:38:35;;;;;;;0.90;0.90;;;;;;;;;;5040613;28;20207;-84
2022/04/16 14:41:10;;;;;;;1.00;1.00;;;;;;;;;;5022845;28;20214;-84
2022/04/16 14:43:40;;;;;;;1.25;0.90;;;;;;;;;;5025768;28;20268;-84
2022/04/16 14:46:08;;;;;;;0.70;0.70;;;;;;;;;;5039442;28;20217;-83
2022/04/16 14:48:37;;;;;;;0.80;0.80;;;;;;;;;;5033133;28;20207;-84
2022/04/16 14:51:04;;;;;;;0.90;0.90;;;;;;;;;;5018772;28;20587;-82
2022/04/16 14:53:31;;;;;;;0.95;0.95;;;;;;;;;;5030971;28;20248;-84
2022/04/16 14:55:59;;;;;;;1.67;1.27;;;;;;;;;;5038228;28;20206;-83
2022/04/16 14:58:27;;;;;;;1.20;1.20;;;;;;;;;;5037919;28;20293;-83
2022/04/16 15:00:54;;;;;;;1.38;1.25;;;;;;;;;;5023449;28;20207;-81
2022/04/16 15:03:22;;;;;;;1.05;1.05;;;;;;;;;;5037387;28;20230;-84
2022/04/16 15:05:50;;;;;;;1.00;1.00;;;;;;;;;;5033197;28;20233;-84
2022/04/16 15:08:18;;;;;;;1.25;1.10;;;;;;;;;;5024599;28;20569;-83
2022/04/16 15:10:45;;;;;;;0.93;0.93;;;;;;;;;;5016815;28;20262;-85
2022/04/16 15:13:12;;;;;;;1.08;1.08;;;;;;;;;;5018121;28;20293;-83
2022/04/16 15:15:40;;;;;;;1.45;1.35;;;;;;;;;;5018107;28;20192;-83
2022/04/16 15:18:07;;;;;;;1.77;1.67;;;;;;;;;;5018305;28;20219;-83
2022/04/16 15:20:36;;;;;;;1.27;1.23;;;;;;;;;;5017639;28;20261;-85
2022/04/16 15:23:05;;;;;;;1.85;1.13;;;;;;;;;;5021838;28;20218;-83